sensor_id;sensor_type;location;lat;lon;timestamp;P1;P2;P0
72509;PMS5003;60532;56.114;40.350;2023-08-20T00:00:25;15.00;14.60;9.00
72509;PMS5003;60532;56.114;40.350;2023-08-20T00:02:25;14.00;13.25;8.25
72509;PMS5003;60532;56.114;40.350;2023-08-20T00:04:27;11.00;11.00;8.00
72509;PMS5003;60532;56.114;40.350;2023-08-20T00:06:28;13.20;12.40;7.40
72509;PMS5003;60532;56.114;40.350;2023-08-20T00:08:28;8.75;8.75;6.25
72509;PMS5003;60532;56.114;40.350;2023-08-20T00:10:29;16.00;13.25;8.50
72509;PMS5003;60532;56.114;40.350;2023-08-20T00:12:30;15.00;14.00;8.00
72509;PMS5003;60532;56.114;40.350;2023-08-20T00:16:49;9.00;8.60;6.40
72509;PMS5003;60532;56.114;40.350;2023-08-20T00:18:50;14.33;12.67;7.33
72509;PMS5003;60532;56.114;40.350;2023-08-20T00:20:51;14.00;12.25;8.00
72509;PMS5003;60532;56.114;40.350;2023-08-20T00:22:52;10.60;10.60;6.00
72509;PMS5003;60532;56.114;40.350;2023-08-20T00:24:53;12.50;11.00;8.00
72509;PMS5003;60532;56.114;40.350;2023-08-20T00:26:53;15.00;13.00;7.80
72509;PMS5003;60532;56.114;40.350;2023-08-20T00:28:54;12.00;11.00;7.75
72509;PMS5003;60532;56.114;40.350;2023-08-20T00:30:54;11.00;11.00;6.50
72509;PMS5003;60532;56.114;40.350;2023-08-20T00:32:55;15.50;14.75;8.50
72509;PMS5003;60532;56.114;40.350;2023-08-20T00:34:55;11.00;11.00;6.50
72509;PMS5003;60532;56.114;40.350;2023-08-20T00:36:56;14.50;13.75;7.75
72509;PMS5003;60532;56.114;40.350;2023-08-20T00:38:56;10.33;9.33;5.67
72509;PMS5003;60532;56.114;40.350;2023-08-20T00:40:57;13.00;12.00;7.00
72509;PMS5003;60532;56.114;40.350;2023-08-20T00:42:57;13.67;12.00;7.00
72509;PMS5003;60532;56.114;40.350;2023-08-20T00:44:58;14.50;12.25;7.00
72509;PMS5003;60532;56.114;40.350;2023-08-20T00:46:59;8.00;8.00;4.00
72509;PMS5003;60532;56.114;40.350;2023-08-20T00:49:00;10.20;7.00;5.40
72509;PMS5003;60532;56.114;40.350;2023-08-20T00:51:00;13.00;12.25;7.00
72509;PMS5003;60532;56.114;40.350;2023-08-20T00:53:01;13.75;12.75;8.00
72509;PMS5003;60532;56.114;40.350;2023-08-20T00:55:05;12.40;11.40;6.60
72509;PMS5003;60532;56.114;40.350;2023-08-20T00:57:07;11.20;10.40;5.40
72509;PMS5003;60532;56.114;40.350;2023-08-20T00:59:08;12.80;12.80;8.00
72509;PMS5003;60532;56.114;40.350;2023-08-20T01:01:09;9.67;8.00;4.00
72509;PMS5003;60532;56.114;40.350;2023-08-20T01:03:09;12.00;12.00;5.75
72509;PMS5003;60532;56.114;40.350;2023-08-20T01:05:10;14.00;14.00;7.00
72509;PMS5003;60532;56.114;40.350;2023-08-20T01:11:21;11.40;11.40;7.60
72509;PMS5003;60532;56.114;40.350;2023-08-20T01:13:23;11.00;10.40;5.00
72509;PMS5003;60532;56.114;40.350;2023-08-20T01:15:24;13.75;13.50;7.75
72509;PMS5003;60532;56.114;40.350;2023-08-20T01:17:24;11.00;10.50;5.00
72509;PMS5003;60532;56.114;40.350;2023-08-20T01:19:25;11.75;11.75;7.00
72509;PMS5003;60532;56.114;40.350;2023-08-20T01:21:37;15.00;15.00;7.25
72509;PMS5003;60532;56.114;40.350;2023-08-20T01:25:50;12.80;12.60;7.00
72509;PMS5003;60532;56.114;40.350;2023-08-20T01:28:03;10.40;10.40;5.00
72509;PMS5003;60532;56.114;40.350;2023-08-20T01:30:07;11.00;11.00;7.00
72509;PMS5003;60532;56.114;40.350;2023-08-20T01:32:08;13.60;12.00;8.20
72509;PMS5003;60532;56.114;40.350;2023-08-20T01:34:09;15.00;14.20;9.00
72509;PMS5003;60532;56.114;40.350;2023-08-20T01:36:10;8.75;7.25;6.00
72509;PMS5003;60532;56.114;40.350;2023-08-20T01:38:10;14.50;13.00;8.00
72509;PMS5003;60532;56.114;40.350;2023-08-20T01:40:11;15.75;13.25;8.00
72509;PMS5003;60532;56.114;40.350;2023-08-20T01:42:11;12.00;12.00;6.75
72509;PMS5003;60532;56.114;40.350;2023-08-20T01:44:12;13.25;12.00;7.25
72509;PMS5003;60532;56.114;40.350;2023-08-20T01:46:12;12.50;12.00;8.00
72509;PMS5003;60532;56.114;40.350;2023-08-20T01:48:13;13.50;12.50;7.25
72509;PMS5003;60532;56.114;40.350;2023-08-20T01:50:13;14.00;12.25;7.00
72509;PMS5003;60532;56.114;40.350;2023-08-20T01:52:14;12.00;12.00;7.50
72509;PMS5003;60532;56.114;40.350;2023-08-20T01:54:14;13.33;13.33;7.00
72509;PMS5003;60532;56.114;40.350;2023-08-20T01:56:15;13.00;11.50;6.75
72509;PMS5003;60532;56.114;40.350;2023-08-20T01:58:16;11.40;10.80;8.60
72509;PMS5003;60532;56.114;40.350;2023-08-20T02:00:16;12.75;12.00;7.00
72509;PMS5003;60532;56.114;40.350;2023-08-20T02:02:17;14.75;12.25;8.00
72509;PMS5003;60532;56.114;40.350;2023-08-20T02:04:17;12.00;12.00;7.75
72509;PMS5003;60532;56.114;40.350;2023-08-20T02:06:18;12.25;12.25;6.50
72509;PMS5003;60532;56.114;40.350;2023-08-20T02:08:18;15.25;14.00;8.00
72509;PMS5003;60532;56.114;40.350;2023-08-20T02:10:19;13.00;10.00;5.00
72509;PMS5003;60532;56.114;40.350;2023-08-20T02:12:21;15.40;14.40;8.00
72509;PMS5003;60532;56.114;40.350;2023-08-20T02:14:21;13.00;11.50;7.50
72509;PMS5003;60532;56.114;40.350;2023-08-20T02:16:22;12.50;12.50;7.25
72509;PMS5003;60532;56.114;40.350;2023-08-20T02:18:22;16.00;14.00;9.25
72509;PMS5003;60532;56.114;40.350;2023-08-20T02:20:23;15.50;11.50;7.00
72509;PMS5003;60532;56.114;40.350;2023-08-20T02:22:24;14.40;13.20;7.60
72509;PMS5003;60532;56.114;40.350;2023-08-20T02:24:24;13.75;13.00;8.25
72509;PMS5003;60532;56.114;40.350;2023-08-20T02:26:25;13.00;12.50;7.75
72509;PMS5003;60532;56.114;40.350;2023-08-20T02:28:25;13.00;13.00;8.00
72509;PMS5003;60532;56.114;40.350;2023-08-20T02:30:26;11.40;11.40;6.40
72509;PMS5003;60532;56.114;40.350;2023-08-20T02:32:27;13.50;13.50;6.00
72509;PMS5003;60532;56.114;40.350;2023-08-20T02:34:27;14.50;12.50;7.00
72509;PMS5003;60532;56.114;40.350;2023-08-20T02:36:27;12.25;10.75;5.00
72509;PMS5003;60532;56.114;40.350;2023-08-20T02:38:28;8.00;6.00;4.00
72509;PMS5003;60532;56.114;40.350;2023-08-20T02:40:28;14.00;13.00;8.50
72509;PMS5003;60532;56.114;40.350;2023-08-20T02:42:29;12.75;12.00;6.75
72509;PMS5003;60532;56.114;40.350;2023-08-20T02:44:29;14.00;14.00;7.50
72509;PMS5003;60532;56.114;40.350;2023-08-20T02:46:30;13.75;12.00;6.00
72509;PMS5003;60532;56.114;40.350;2023-08-20T02:48:30;14.50;12.00;7.25
72509;PMS5003;60532;56.114;40.350;2023-08-20T02:50:31;14.50;13.25;8.50
72509;PMS5003;60532;56.114;40.350;2023-08-20T02:52:31;11.25;9.25;7.00
72509;PMS5003;60532;56.114;40.350;2023-08-20T02:54:32;11.00;11.00;7.00
72509;PMS5003;60532;56.114;40.350;2023-08-20T02:56:32;11.75;11.00;6.75
72509;PMS5003;60532;56.114;40.350;2023-08-20T02:58:32;13.50;13.50;8.00
72509;PMS5003;60532;56.114;40.350;2023-08-20T03:00:33;16.50;11.50;7.00
72509;PMS5003;60532;56.114;40.350;2023-08-20T03:02:33;14.25;13.75;7.25
72509;PMS5003;60532;56.114;40.350;2023-08-20T03:04:34;12.75;12.75;8.75
72509;PMS5003;60532;56.114;40.350;2023-08-20T03:06:35;11.60;11.60;8.00
72509;PMS5003;60532;56.114;40.350;2023-08-20T03:08:35;11.75;11.75;6.75
72509;PMS5003;60532;56.114;40.350;2023-08-20T03:10:35;8.25;8.25;6.75
72509;PMS5003;60532;56.114;40.350;2023-08-20T03:12:36;13.00;13.00;8.00
72509;PMS5003;60532;56.114;40.350;2023-08-20T03:14:36;14.75;14.75;8.50
72509;PMS5003;60532;56.114;40.350;2023-08-20T03:16:37;20.00;15.75;9.25
72509;PMS5003;60532;56.114;40.350;2023-08-20T03:18:37;19.50;15.00;9.75
72509;PMS5003;60532;56.114;40.350;2023-08-20T03:20:38;22.00;19.00;10.50
72509;PMS5003;60532;56.114;40.350;2023-08-20T03:22:38;25.75;21.50;13.75
72509;PMS5003;60532;56.114;40.350;2023-08-20T03:24:39;22.25;20.50;11.00
72509;PMS5003;60532;56.114;40.350;2023-08-20T03:26:39;24.25;18.50;10.25
72509;PMS5003;60532;56.114;40.350;2023-08-20T03:28:39;21.75;18.50;10.00
72509;PMS5003;60532;56.114;40.350;2023-08-20T03:30:40;22.50;18.75;9.50
72509;PMS5003;60532;56.114;40.350;2023-08-20T03:32:40;18.50;18.50;9.75
72509;PMS5003;60532;56.114;40.350;2023-08-20T03:34:41;14.75;14.75;10.00
72509;PMS5003;60532;56.114;40.350;2023-08-20T03:36:41;20.25;18.75;11.25
72509;PMS5003;60532;56.114;40.350;2023-08-20T03:38:42;21.50;20.00;12.00
72509;PMS5003;60532;56.114;40.350;2023-08-20T03:40:42;18.75;16.00;9.75
72509;PMS5003;60532;56.114;40.350;2023-08-20T03:42:43;21.50;20.00;12.50
72509;PMS5003;60532;56.114;40.350;2023-08-20T03:44:43;16.25;16.25;10.50
72509;PMS5003;60532;56.114;40.350;2023-08-20T03:46:44;19.00;17.50;10.00
72509;PMS5003;60532;56.114;40.350;2023-08-20T03:48:44;20.50;17.75;9.50
72509;PMS5003;60532;56.114;40.350;2023-08-20T03:50:45;16.00;12.50;7.00
72509;PMS5003;60532;56.114;40.350;2023-08-20T03:52:45;19.25;17.25;10.00
72509;PMS5003;60532;56.114;40.350;2023-08-20T03:54:46;16.75;16.75;10.00
72509;PMS5003;60532;56.114;40.350;2023-08-20T03:56:46;18.75;18.00;10.25
72509;PMS5003;60532;56.114;40.350;2023-08-20T03:58:46;15.25;15.25;8.50
72509;PMS5003;60532;56.114;40.350;2023-08-20T04:00:47;16.50;14.00;9.00
72509;PMS5003;60532;56.114;40.350;2023-08-20T04:02:47;16.25;15.50;10.00
72509;PMS5003;60532;56.114;40.350;2023-08-20T04:04:48;17.75;16.00;8.00
72509;PMS5003;60532;56.114;40.350;2023-08-20T04:06:48;11.75;10.00;4.00
72509;PMS5003;60532;56.114;40.350;2023-08-20T04:08:49;15.00;13.25;8.00
72509;PMS5003;60532;56.114;40.350;2023-08-20T04:10:49;17.25;15.00;10.00
72509;PMS5003;60532;56.114;40.350;2023-08-20T04:12:50;14.50;13.75;9.00
72509;PMS5003;60532;56.114;40.350;2023-08-20T04:14:50;19.75;18.25;12.75
72509;PMS5003;60532;56.114;40.350;2023-08-20T04:16:51;12.75;12.75;6.50
72509;PMS5003;60532;56.114;40.350;2023-08-20T04:18:51;15.00;15.00;9.00
72509;PMS5003;60532;56.114;40.350;2023-08-20T04:20:52;18.00;17.67;9.67
72509;PMS5003;60532;56.114;40.350;2023-08-20T04:22:53;22.00;19.00;11.25
72509;PMS5003;60532;56.114;40.350;2023-08-20T04:24:53;16.33;16.00;10.00
72509;PMS5003;60532;56.114;40.350;2023-08-20T04:26:54;16.33;15.67;10.00
72509;PMS5003;60532;56.114;40.350;2023-08-20T04:28:54;14.00;14.00;10.00
72509;PMS5003;60532;56.114;40.350;2023-08-20T04:30:54;14.00;14.00;10.00
72509;PMS5003;60532;56.114;40.350;2023-08-20T04:32:56;16.25;15.75;9.25
72509;PMS5003;60532;56.114;40.350;2023-08-20T04:34:56;16.00;16.00;9.00
72509;PMS5003;60532;56.114;40.350;2023-08-20T04:36:57;16.67;15.33;10.00
72509;PMS5003;60532;56.114;40.350;2023-08-20T04:38:57;14.67;14.67;9.33
72509;PMS5003;60532;56.114;40.350;2023-08-20T04:40:58;17.00;15.00;11.00
72509;PMS5003;60532;56.114;40.350;2023-08-20T04:42:58;15.33;14.67;8.67
72509;PMS5003;60532;56.114;40.350;2023-08-20T04:44:59;18.33;15.67;9.00
72509;PMS5003;60532;56.114;40.350;2023-08-20T04:46:59;17.67;16.00;9.33
72509;PMS5003;60532;56.114;40.350;2023-08-20T04:49:00;15.00;12.67;7.33
72509;PMS5003;60532;56.114;40.350;2023-08-20T04:51:00;18.00;16.00;10.67
72509;PMS5003;60532;56.114;40.350;2023-08-20T04:53:01;21.00;18.67;9.67
72509;PMS5003;60532;56.114;40.350;2023-08-20T04:55:02;17.67;17.67;10.67
72509;PMS5003;60532;56.114;40.350;2023-08-20T04:57:02;14.75;14.25;9.25
72509;PMS5003;60532;56.114;40.350;2023-08-20T04:59:03;14.67;14.33;9.33
72509;PMS5003;60532;56.114;40.350;2023-08-20T05:01:03;14.67;13.67;9.00
72509;PMS5003;60532;56.114;40.350;2023-08-20T05:03:05;14.50;11.50;6.25
72509;PMS5003;60532;56.114;40.350;2023-08-20T05:05:06;11.67;11.33;6.33
72509;PMS5003;60532;56.114;40.350;2023-08-20T05:07:07;14.75;12.75;7.00
72509;PMS5003;60532;56.114;40.350;2023-08-20T05:09:07;14.67;14.33;10.00
72509;PMS5003;60532;56.114;40.350;2023-08-20T05:11:08;13.33;11.67;7.67
72509;PMS5003;60532;56.114;40.350;2023-08-20T05:13:08;18.67;17.00;10.67
72509;PMS5003;60532;56.114;40.350;2023-08-20T05:15:09;13.67;12.33;9.00
72509;PMS5003;60532;56.114;40.350;2023-08-20T05:17:09;14.00;12.67;7.33
72509;PMS5003;60532;56.114;40.350;2023-08-20T05:19:10;15.67;12.33;9.33
72509;PMS5003;60532;56.114;40.350;2023-08-20T05:21:10;36.33;22.67;10.33
72509;PMS5003;60532;56.114;40.350;2023-08-20T05:23:13;29.50;21.50;11.25
72509;PMS5003;60532;56.114;40.350;2023-08-20T05:25:14;13.67;8.67;6.00
72509;PMS5003;60532;56.114;40.350;2023-08-20T05:27:15;28.00;19.33;11.33
72509;PMS5003;60532;56.114;40.350;2023-08-20T05:29:17;31.25;23.25;11.75
72509;PMS5003;60532;56.114;40.350;2023-08-20T05:31:17;33.67;23.33;13.00
72509;PMS5003;60532;56.114;40.350;2023-08-20T05:33:17;18.67;18.00;11.00
72509;PMS5003;60532;56.114;40.350;2023-08-20T05:35:18;28.00;18.67;9.00
72509;PMS5003;60532;56.114;40.350;2023-08-20T05:37:18;30.00;26.67;14.33
72509;PMS5003;60532;56.114;40.350;2023-08-20T05:39:19;29.67;25.33;12.33
72509;PMS5003;60532;56.114;40.350;2023-08-20T05:41:19;27.33;21.67;13.33
72509;PMS5003;60532;56.114;40.350;2023-08-20T05:43:20;29.00;21.00;13.00
72509;PMS5003;60532;56.114;40.350;2023-08-20T05:45:20;25.33;23.00;13.67
72509;PMS5003;60532;56.114;40.350;2023-08-20T05:47:21;29.67;24.33;13.00
72509;PMS5003;60532;56.114;40.350;2023-08-20T05:49:21;26.00;23.00;13.00
72509;PMS5003;60532;56.114;40.350;2023-08-20T05:51:21;27.00;24.67;13.33
72509;PMS5003;60532;56.114;40.350;2023-08-20T05:53:22;21.67;17.67;9.67
72509;PMS5003;60532;56.114;40.350;2023-08-20T05:55:23;24.67;20.67;12.00
72509;PMS5003;60532;56.114;40.350;2023-08-20T05:57:24;27.75;20.50;12.50
72509;PMS5003;60532;56.114;40.350;2023-08-20T05:59:24;26.00;21.00;11.33
72509;PMS5003;60532;56.114;40.350;2023-08-20T06:01:25;25.33;21.00;13.00
72509;PMS5003;60532;56.114;40.350;2023-08-20T06:03:25;20.00;16.00;11.00
72509;PMS5003;60532;56.114;40.350;2023-08-20T06:05:25;23.33;18.67;11.33
72509;PMS5003;60532;56.114;40.350;2023-08-20T06:07:26;19.67;15.67;10.67
72509;PMS5003;60532;56.114;40.350;2023-08-20T06:09:27;15.00;14.00;9.67
72509;PMS5003;60532;56.114;40.350;2023-08-20T06:11:27;18.67;15.00;10.00
72509;PMS5003;60532;56.114;40.350;2023-08-20T06:13:27;17.00;14.33;9.67
72509;PMS5003;60532;56.114;40.350;2023-08-20T06:15:28;15.67;15.00;10.00
72509;PMS5003;60532;56.114;40.350;2023-08-20T06:17:28;13.00;13.00;7.00
72509;PMS5003;60532;56.114;40.350;2023-08-20T06:19:29;8.50;8.50;7.00
72509;PMS5003;60532;56.114;40.350;2023-08-20T06:21:29;11.00;11.00;9.00
72509;PMS5003;60532;56.114;40.350;2023-08-20T06:23:30;13.25;13.25;9.75
72509;PMS5003;60532;56.114;40.350;2023-08-20T06:25:30;11.25;11.25;6.00
72509;PMS5003;60532;56.114;40.350;2023-08-20T06:27:31;13.00;13.00;7.00
72509;PMS5003;60532;56.114;40.350;2023-08-20T06:29:31;12.75;12.75;8.00
72509;PMS5003;60532;56.114;40.350;2023-08-20T06:31:31;12.25;12.25;8.00
72509;PMS5003;60532;56.114;40.350;2023-08-20T06:33:32;12.50;12.50;7.75
72509;PMS5003;60532;56.114;40.350;2023-08-20T06:35:32;15.75;14.00;9.00
72509;PMS5003;60532;56.114;40.350;2023-08-20T06:37:34;15.60;13.40;9.00
72509;PMS5003;60532;56.114;40.350;2023-08-20T06:39:34;13.75;13.50;7.00
72509;PMS5003;60532;56.114;40.350;2023-08-20T06:41:35;9.50;9.50;7.00
72509;PMS5003;60532;56.114;40.350;2023-08-20T06:43:35;13.00;13.00;9.25
72509;PMS5003;60532;56.114;40.350;2023-08-20T06:45:36;11.25;9.00;6.25
72509;PMS5003;60532;56.114;40.350;2023-08-20T06:47:36;16.25;14.75;8.50
72509;PMS5003;60532;56.114;40.350;2023-08-20T06:49:37;17.00;14.00;8.00
72509;PMS5003;60532;56.114;40.350;2023-08-20T06:51:37;11.50;11.50;7.75
72509;PMS5003;60532;56.114;40.350;2023-08-20T06:53:38;11.75;11.75;9.25
72509;PMS5003;60532;56.114;40.350;2023-08-20T06:55:38;13.00;11.75;8.00
72509;PMS5003;60532;56.114;40.350;2023-08-20T06:57:38;14.75;14.75;9.50
72509;PMS5003;60532;56.114;40.350;2023-08-20T06:59:39;15.50;14.50;10.00
72509;PMS5003;60532;56.114;40.350;2023-08-20T07:01:39;11.25;10.75;7.00
72509;PMS5003;60532;56.114;40.350;2023-08-20T07:03:40;13.25;13.25;8.00
72509;PMS5003;60532;56.114;40.350;2023-08-20T07:05:41;13.50;11.50;6.75
72509;PMS5003;60532;56.114;40.350;2023-08-20T07:07:41;12.67;12.67;8.33
72509;PMS5003;60532;56.114;40.350;2023-08-20T07:09:42;14.00;11.67;8.33
72509;PMS5003;60532;56.114;40.350;2023-08-20T07:11:42;13.33;13.33;8.00
72509;PMS5003;60532;56.114;40.350;2023-08-20T07:13:43;10.33;9.67;7.00
72509;PMS5003;60532;56.114;40.350;2023-08-20T07:15:43;14.00;12.00;8.00
72509;PMS5003;60532;56.114;40.350;2023-08-20T07:17:44;15.33;13.33;9.00
72509;PMS5003;60532;56.114;40.350;2023-08-20T07:19:44;14.00;14.00;8.67
72509;PMS5003;60532;56.114;40.350;2023-08-20T07:21:45;13.67;13.33;9.00
72509;PMS5003;60532;56.114;40.350;2023-08-20T07:23:45;14.00;14.00;8.67
72509;PMS5003;60532;56.114;40.350;2023-08-20T07:25:46;15.67;12.67;7.67
72509;PMS5003;60532;56.114;40.350;2023-08-20T07:27:47;15.00;15.00;9.75
72509;PMS5003;60532;56.114;40.350;2023-08-20T07:29:47;15.33;13.67;8.33
72509;PMS5003;60532;56.114;40.350;2023-08-20T07:31:47;15.00;14.67;9.33
72509;PMS5003;60532;56.114;40.350;2023-08-20T07:33:49;12.67;12.67;9.00
72509;PMS5003;60532;56.114;40.350;2023-08-20T07:35:49;13.25;13.25;6.25
72509;PMS5003;60532;56.114;40.350;2023-08-20T07:37:50;13.33;13.33;9.00
72509;PMS5003;60532;56.114;40.350;2023-08-20T07:39:50;13.33;13.33;7.00
72509;PMS5003;60532;56.114;40.350;2023-08-20T07:41:51;10.67;10.33;9.00
72509;PMS5003;60532;56.114;40.350;2023-08-20T07:43:51;12.67;12.00;8.00
72509;PMS5003;60532;56.114;40.350;2023-08-20T07:45:53;15.00;13.50;8.75
72509;PMS5003;60532;56.114;40.350;2023-08-20T07:47:53;16.67;16.67;10.00
72509;PMS5003;60532;56.114;40.350;2023-08-20T07:49:53;18.00;16.00;10.00
72509;PMS5003;60532;56.114;40.350;2023-08-20T07:51:54;18.67;16.00;11.00
72509;PMS5003;60532;56.114;40.350;2023-08-20T07:53:56;14.25;14.00;8.25
72509;PMS5003;60532;56.114;40.350;2023-08-20T07:55:58;15.50;15.50;9.75
72509;PMS5003;60532;56.114;40.350;2023-08-20T07:57:59;15.25;15.00;9.75
72509;PMS5003;60532;56.114;40.350;2023-08-20T08:00:00;14.25;13.00;7.75
72509;PMS5003;60532;56.114;40.350;2023-08-20T08:02:02;8.75;8.75;8.00
72509;PMS5003;60532;56.114;40.350;2023-08-20T08:04:02;13.00;13.00;8.00
72509;PMS5003;60532;56.114;40.350;2023-08-20T08:06:03;13.67;13.67;8.67
72509;PMS5003;60532;56.114;40.350;2023-08-20T08:08:03;14.00;14.00;9.00
72509;PMS5003;60532;56.114;40.350;2023-08-20T08:10:04;17.00;17.00;10.00
72509;PMS5003;60532;56.114;40.350;2023-08-20T08:12:05;12.00;12.00;7.33
72509;PMS5003;60532;56.114;40.350;2023-08-20T08:14:05;20.00;17.50;11.00
72509;PMS5003;60532;56.114;40.350;2023-08-20T08:16:06;14.33;13.33;9.00
72509;PMS5003;60532;56.114;40.350;2023-08-20T08:18:06;16.67;15.33;10.33
72509;PMS5003;60532;56.114;40.350;2023-08-20T08:20:07;16.00;16.00;11.33
72509;PMS5003;60532;56.114;40.350;2023-08-20T08:22:07;11.67;11.67;7.00
72509;PMS5003;60532;56.114;40.350;2023-08-20T08:24:08;17.00;17.00;11.00
72509;PMS5003;60532;56.114;40.350;2023-08-20T08:26:09;17.00;15.67;11.00
72509;PMS5003;60532;56.114;40.350;2023-08-20T08:28:09;15.33;15.33;9.67
72509;PMS5003;60532;56.114;40.350;2023-08-20T08:30:09;14.33;14.33;9.33
72509;PMS5003;60532;56.114;40.350;2023-08-20T08:32:10;11.00;9.67;6.33
72509;PMS5003;60532;56.114;40.350;2023-08-20T08:34:11;18.00;17.00;9.33
72509;PMS5003;60532;56.114;40.350;2023-08-20T08:36:11;16.00;16.00;8.33
72509;PMS5003;60532;56.114;40.350;2023-08-20T08:38:12;14.67;14.67;10.00
72509;PMS5003;60532;56.114;40.350;2023-08-20T08:40:12;16.00;16.00;10.00
72509;PMS5003;60532;56.114;40.350;2023-08-20T08:42:13;15.00;15.00;9.67
72509;PMS5003;60532;56.114;40.350;2023-08-20T08:44:14;17.25;14.25;7.75
72509;PMS5003;60532;56.114;40.350;2023-08-20T08:46:15;18.00;17.67;11.00
72509;PMS5003;60532;56.114;40.350;2023-08-20T08:48:16;20.00;16.00;8.75
72509;PMS5003;60532;56.114;40.350;2023-08-20T08:50:17;14.75;14.75;9.00
72509;PMS5003;60532;56.114;40.350;2023-08-20T08:52:17;14.67;14.67;10.00
72509;PMS5003;60532;56.114;40.350;2023-08-20T08:54:19;16.50;16.00;9.75
72509;PMS5003;60532;56.114;40.350;2023-08-20T08:56:21;16.00;16.00;10.00
72509;PMS5003;60532;56.114;40.350;2023-08-20T08:58:21;13.67;13.67;9.00
72509;PMS5003;60532;56.114;40.350;2023-08-20T09:00:22;16.00;14.67;8.00
72509;PMS5003;60532;56.114;40.350;2023-08-20T09:02:22;15.00;15.00;9.33
72509;PMS5003;60532;56.114;40.350;2023-08-20T09:04:23;12.75;12.75;7.00
72509;PMS5003;60532;56.114;40.350;2023-08-20T09:06:24;13.67;13.67;9.00
72509;PMS5003;60532;56.114;40.350;2023-08-20T09:08:28;10.33;10.33;7.00
72509;PMS5003;60532;56.114;40.350;2023-08-20T09:10:28;14.50;13.75;9.75
72509;PMS5003;60532;56.114;40.350;2023-08-20T09:12:29;13.33;13.33;8.67
72509;PMS5003;60532;56.114;40.350;2023-08-20T09:14:34;16.75;16.75;9.00
72509;PMS5003;60532;56.114;40.350;2023-08-20T09:16:34;16.67;16.67;10.00
72509;PMS5003;60532;56.114;40.350;2023-08-20T09:18:38;15.00;15.00;10.00
72509;PMS5003;60532;56.114;40.350;2023-08-20T09:20:40;16.25;14.50;8.75
72509;PMS5003;60532;56.114;40.350;2023-08-20T09:22:40;18.67;18.00;9.67
72509;PMS5003;60532;56.114;40.350;2023-08-20T09:24:52;15.00;15.00;9.50
72509;PMS5003;60532;56.114;40.350;2023-08-20T09:26:56;16.50;14.25;7.00
72509;PMS5003;60532;56.114;40.350;2023-08-20T09:28:57;17.00;15.50;8.25
72509;PMS5003;60532;56.114;40.350;2023-08-20T09:30:58;23.00;19.67;11.67
72509;PMS5003;60532;56.114;40.350;2023-08-20T09:35:05;17.25;17.25;11.00
72509;PMS5003;60532;56.114;40.350;2023-08-20T09:37:10;21.25;19.25;12.50
72509;PMS5003;60532;56.114;40.350;2023-08-20T09:39:10;22.75;21.25;13.25
72509;PMS5003;60532;56.114;40.350;2023-08-20T09:41:11;20.67;18.00;11.67
72509;PMS5003;60532;56.114;40.350;2023-08-20T09:43:12;18.50;17.50;11.25
72509;PMS5003;60532;56.114;40.350;2023-08-20T09:45:14;16.75;16.75;11.00
72509;PMS5003;60532;56.114;40.350;2023-08-20T09:47:15;19.25;18.50;11.75
72509;PMS5003;60532;56.114;40.350;2023-08-20T09:49:17;20.50;17.00;10.75
72509;PMS5003;60532;56.114;40.350;2023-08-20T09:51:19;17.50;17.00;12.50
72509;PMS5003;60532;56.114;40.350;2023-08-20T09:53:27;15.25;15.25;11.00
72509;PMS5003;60532;56.114;40.350;2023-08-20T09:55:32;20.25;20.00;12.50
72509;PMS5003;60532;56.114;40.350;2023-08-20T09:57:37;21.00;19.50;11.75
72509;PMS5003;60532;56.114;40.350;2023-08-20T09:59:38;22.25;21.25;13.50
72509;PMS5003;60532;56.114;40.350;2023-08-20T10:01:40;19.25;19.25;12.00
72509;PMS5003;60532;56.114;40.350;2023-08-20T10:03:41;22.67;22.67;12.33
72509;PMS5003;60532;56.114;40.350;2023-08-20T10:05:43;19.25;19.25;10.00
72509;PMS5003;60532;56.114;40.350;2023-08-20T10:07:44;19.75;18.75;12.00
72509;PMS5003;60532;56.114;40.350;2023-08-20T10:09:45;20.25;18.00;12.00
72509;PMS5003;60532;56.114;40.350;2023-08-20T10:11:46;21.00;21.00;13.33
72509;PMS5003;60532;56.114;40.350;2023-08-20T10:13:47;24.00;22.33;13.00
72509;PMS5003;60532;56.114;40.350;2023-08-20T10:15:48;18.00;18.00;12.00
72509;PMS5003;60532;56.114;40.350;2023-08-20T10:17:49;21.25;19.00;12.25
72509;PMS5003;60532;56.114;40.350;2023-08-20T10:19:52;20.00;19.25;13.00
72509;PMS5003;60532;56.114;40.350;2023-08-20T10:21:53;17.75;16.50;11.00
72509;PMS5003;60532;56.114;40.350;2023-08-20T10:23:54;20.00;18.00;10.67
72509;PMS5003;60532;56.114;40.350;2023-08-20T10:25:54;20.33;20.33;12.00
72509;PMS5003;60532;56.114;40.350;2023-08-20T10:28:11;21.00;19.00;11.75
72509;PMS5003;60532;56.114;40.350;2023-08-20T10:30:18;22.00;19.50;12.50
72509;PMS5003;60532;56.114;40.350;2023-08-20T10:34:42;20.50;20.00;12.00
72509;PMS5003;60532;56.114;40.350;2023-08-20T10:36:43;20.75;19.50;13.00
72509;PMS5003;60532;56.114;40.350;2023-08-20T10:38:46;22.00;21.33;12.67
72509;PMS5003;60532;56.114;40.350;2023-08-20T10:40:48;18.75;18.50;12.25
72509;PMS5003;60532;56.114;40.350;2023-08-20T10:42:49;20.25;18.75;9.75
72509;PMS5003;60532;56.114;40.350;2023-08-20T10:44:59;22.00;19.00;12.33
72509;PMS5003;60532;56.114;40.350;2023-08-20T10:46:59;21.00;20.50;13.25
72509;PMS5003;60532;56.114;40.350;2023-08-20T10:49:01;24.33;22.67;13.00
72509;PMS5003;60532;56.114;40.350;2023-08-20T10:53:08;15.75;15.75;9.50
72509;PMS5003;60532;56.114;40.350;2023-08-20T10:55:11;14.75;14.00;10.75
72509;PMS5003;60532;56.114;40.350;2023-08-20T10:57:13;21.25;20.00;12.50
72509;PMS5003;60532;56.114;40.350;2023-08-20T11:01:20;21.33;18.33;12.00
72509;PMS5003;60532;56.114;40.350;2023-08-20T11:03:21;18.50;17.00;12.00
72509;PMS5003;60532;56.114;40.350;2023-08-20T11:05:22;19.33;18.00;12.00
72509;PMS5003;60532;56.114;40.350;2023-08-20T11:07:23;18.67;18.67;12.00
72509;PMS5003;60532;56.114;40.350;2023-08-20T11:09:28;14.75;14.75;11.25
72509;PMS5003;60532;56.114;40.350;2023-08-20T11:11:29;18.50;18.50;12.50
72509;PMS5003;60532;56.114;40.350;2023-08-20T11:13:31;22.00;20.00;12.75
72509;PMS5003;60532;56.114;40.350;2023-08-20T11:15:32;23.00;19.50;12.75
72509;PMS5003;60532;56.114;40.350;2023-08-20T11:17:34;24.50;22.50;14.50
72509;PMS5003;60532;56.114;40.350;2023-08-20T11:19:35;21.33;20.00;12.33
72509;PMS5003;60532;56.114;40.350;2023-08-20T11:21:36;19.25;18.75;10.50
72509;PMS5003;60532;56.114;40.350;2023-08-20T11:23:37;15.75;15.75;9.75
72509;PMS5003;60532;56.114;40.350;2023-08-20T11:25:43;19.50;18.00;12.00
72509;PMS5003;60532;56.114;40.350;2023-08-20T11:27:43;19.00;18.00;11.25
72509;PMS5003;60532;56.114;40.350;2023-08-20T11:29:44;17.33;16.67;10.67
72509;PMS5003;60532;56.114;40.350;2023-08-20T11:31:44;18.00;18.00;9.67